createdAt,value
2018-05-05T00:01:18.647Z,13.60
2018-05-05T00:03:45.565Z,13.60
2018-05-05T00:06:12.440Z,13.60
2018-05-05T00:08:39.352Z,13.50
2018-05-05T00:11:06.192Z,13.50
2018-05-05T00:13:33.137Z,13.50
2018-05-05T00:16:00.049Z,13.40
2018-05-05T00:18:27.050Z,13.30
2018-05-05T00:20:53.899Z,13.40
2018-05-05T00:23:20.749Z,13.30
2018-05-05T00:25:47.665Z,13.20
2018-05-05T00:28:14.580Z,13.30
2018-05-05T00:30:41.568Z,13.50
2018-05-05T00:33:08.425Z,13.50
2018-05-05T00:35:35.352Z,13.50
2018-05-05T00:38:02.209Z,13.50
2018-05-05T00:40:29.158Z,13.40
2018-05-05T00:42:56.074Z,13.20
2018-05-05T00:45:22.944Z,13.20
2018-05-05T00:47:49.867Z,13.30
2018-05-05T00:50:16.851Z,13.30
2018-05-05T00:52:43.778Z,13.30
2018-05-05T00:55:10.816Z,13.30
2018-05-05T00:57:37.679Z,13.20
2018-05-05T01:00:04.605Z,13.30
2018-05-05T01:02:31.456Z,13.30
2018-05-05T01:04:58.373Z,13.30
2018-05-05T01:07:25.225Z,13.30
2018-05-05T01:09:52.095Z,13.30
2018-05-05T01:12:19.014Z,13.20
2018-05-05T01:14:45.945Z,13.30
2018-05-05T01:17:12.807Z,13.30
2018-05-05T01:19:39.729Z,13.20
2018-05-05T01:22:06.588Z,13.20
2018-05-05T01:24:33.437Z,13.30
2018-05-05T01:27:00.360Z,13.30
2018-05-05T01:29:27.209Z,13.20
2018-05-05T01:31:54.169Z,13.10
2018-05-05T01:34:21.086Z,13.20
2018-05-05T01:36:48.006Z,13.00
2018-05-05T01:39:14.844Z,13.00
2018-05-05T01:41:41.765Z,13.10
2018-05-05T01:44:08.621Z,13.00
2018-05-05T01:46:35.484Z,13.00
2018-05-05T01:49:02.402Z,13.00
2018-05-05T01:51:29.252Z,12.90
2018-05-05T01:53:56.158Z,12.90
2018-05-05T01:56:23.101Z,12.80
2018-05-05T01:58:49.956Z,12.80
2018-05-05T02:01:16.812Z,12.80
2018-05-05T02:03:43.734Z,12.80
2018-05-05T02:06:10.610Z,12.80
2018-05-05T02:08:37.650Z,12.80
2018-05-05T02:11:04.535Z,12.80
2018-05-05T02:13:31.392Z,12.70
2018-05-05T02:15:59.100Z,12.70
2018-05-05T02:18:26.015Z,12.60
2018-05-05T02:20:52.931Z,12.60
2018-05-05T02:23:19.800Z,12.60
2018-05-05T02:25:46.736Z,12.50
2018-05-05T02:28:13.648Z,12.50
2018-05-05T02:30:40.517Z,12.50
2018-05-05T02:33:07.429Z,12.40
2018-05-05T02:35:35.081Z,12.40
2018-05-05T02:38:02.007Z,12.40
2018-05-05T02:40:28.950Z,12.40
2018-05-05T02:42:55.810Z,12.40
2018-05-05T02:45:22.689Z,12.40
2018-05-05T02:47:49.622Z,12.40
2018-05-05T02:50:16.477Z,12.30
2018-05-05T02:52:43.386Z,12.30
2018-05-05T02:55:10.365Z,12.10
2018-05-05T02:57:37.294Z,12.10
2018-05-05T03:00:04.934Z,12.10
2018-05-05T03:02:31.888Z,12.00
2018-05-05T03:04:58.749Z,12.10
2018-05-05T03:07:26.442Z,12.00
2018-05-05T03:09:53.346Z,11.90
2018-05-05T03:12:20.201Z,12.00
2018-05-05T03:14:47.924Z,11.90
2018-05-05T03:17:14.839Z,11.80
2018-05-05T03:19:41.823Z,11.80
2018-05-05T03:22:08.678Z,11.80
2018-05-05T03:24:35.602Z,11.70
2018-05-05T03:27:02.447Z,11.70
2018-05-05T03:29:29.421Z,11.70
2018-05-05T03:31:56.406Z,11.70
2018-05-05T03:34:23.335Z,11.50
2018-05-05T03:36:50.998Z,11.60
2018-05-05T03:39:18.599Z,11.50
2018-05-05T03:41:45.462Z,11.50
2018-05-05T03:44:12.376Z,11.60
2018-05-05T03:46:39.269Z,11.50
2018-05-05T03:49:06.185Z,11.60
2018-05-05T03:51:33.045Z,11.60
2018-05-05T03:53:59.969Z,11.60
2018-05-05T03:56:26.828Z,11.50
2018-05-05T03:59:05.805Z,11.60
2018-05-05T04:01:58.064Z,11.50
2018-05-05T04:04:25.090Z,11.50
2018-05-05T04:06:52.698Z,11.50
2018-05-05T04:09:19.612Z,11.50
2018-05-05T04:11:46.453Z,11.50
2018-05-05T04:14:13.360Z,11.60
2018-05-05T04:16:40.269Z,11.60
2018-05-05T04:19:07.117Z,11.60
2018-05-05T04:21:34.037Z,11.70
2018-05-05T04:24:00.876Z,11.70
2018-05-05T04:26:28.245Z,11.60
2018-05-05T04:29:08.297Z,11.60
2018-05-05T04:31:36.196Z,11.60
2018-05-05T04:34:03.075Z,11.60
2018-05-05T04:36:29.993Z,11.70
2018-05-05T04:38:56.914Z,11.60
2018-05-05T04:41:23.788Z,11.60
2018-05-05T04:43:50.716Z,11.90
2018-05-05T04:46:17.575Z,12.80
2018-05-05T04:48:44.498Z,14.60
2018-05-05T04:51:11.340Z,15.80
2018-05-05T04:53:38.244Z,15.80
2018-05-05T04:56:05.128Z,17.50
2018-05-05T04:58:32.033Z,18.40
2018-05-05T05:00:58.942Z,18.20
2018-05-05T05:03:25.844Z,17.20
2018-05-05T05:05:53.433Z,15.00
2018-05-05T05:08:20.354Z,15.00
2018-05-05T05:10:47.965Z,15.20
2018-05-05T05:13:14.890Z,15.10
2018-05-05T05:15:41.748Z,15.70
2018-05-05T05:18:08.598Z,16.30
2018-05-05T05:20:35.521Z,15.80
2018-05-05T05:23:02.380Z,15.60
2018-05-05T05:25:30.094Z,15.60
2018-05-05T05:27:57.689Z,16.00
2018-05-05T05:30:24.616Z,16.00
2018-05-05T05:32:51.480Z,15.60
2018-05-05T05:35:18.401Z,14.90
2018-05-05T05:37:45.253Z,14.70
2018-05-05T05:40:12.732Z,14.40
2018-05-05T05:42:39.673Z,13.80
2018-05-05T05:45:06.589Z,13.90
2018-05-05T05:47:34.193Z,13.80
2018-05-05T05:50:01.097Z,13.70
2018-05-05T05:52:28.823Z,13.40
2018-05-05T05:54:55.745Z,13.40
2018-05-05T05:57:22.708Z,13.50
2018-05-05T05:59:49.719Z,13.60
2018-05-05T06:02:16.649Z,13.80
2018-05-05T06:04:43.561Z,13.60
2018-05-05T06:07:10.416Z,13.60
2018-05-05T06:09:37.338Z,14.00
2018-05-05T06:12:04.253Z,14.00
2018-05-05T06:14:31.173Z,14.10
2018-05-05T06:16:58.830Z,15.10
2018-05-05T06:19:26.424Z,14.80
2018-05-05T06:21:53.341Z,14.80
2018-05-05T06:24:20.945Z,14.60
2018-05-05T06:26:47.811Z,14.60
2018-05-05T06:29:14.726Z,14.60
2018-05-05T06:31:44.165Z,14.50
2018-05-05T06:34:18.534Z,14.60
2018-05-05T06:36:48.225Z,14.70
2018-05-05T06:39:20.875Z,15.00
2018-05-05T06:41:50.754Z,15.20
2018-05-05T06:44:20.601Z,15.50
2018-05-05T06:46:50.222Z,15.60
2018-05-05T06:49:19.363Z,15.60
2018-05-05T06:51:49.281Z,15.40
2018-05-05T06:54:18.857Z,15.30
2018-05-05T06:56:48.337Z,15.20
2018-05-05T06:59:18.913Z,15.20
2018-05-05T07:01:49.327Z,15.20
2018-05-05T07:04:19.526Z,15.30
2018-05-05T07:06:49.323Z,15.30
2018-05-05T07:09:18.121Z,15.50
2018-05-05T07:11:48.029Z,15.70
2018-05-05T07:14:17.821Z,15.60
2018-05-05T07:16:48.261Z,15.90
2018-05-05T07:19:30.024Z,16.10
2018-05-05T07:22:03.134Z,15.90
2018-05-05T07:24:33.185Z,15.90
2018-05-05T07:27:07.947Z,16.00
2018-05-05T07:29:37.426Z,16.20
2018-05-05T07:32:12.772Z,16.50
2018-05-05T07:34:46.557Z,16.30
2018-05-05T07:37:17.604Z,16.10
2018-05-05T07:39:51.259Z,16.20
2018-05-05T07:42:25.252Z,17.60
2018-05-05T07:44:55.639Z,17.50
2018-05-05T07:47:28.679Z,17.80
2018-05-05T07:50:05.045Z,17.80
2018-05-05T07:52:34.476Z,17.50
2018-05-05T07:55:03.530Z,17.60
2018-05-05T07:57:33.715Z,17.00
2018-05-05T08:00:05.395Z,17.40
2018-05-05T08:02:34.869Z,17.30
2018-05-05T08:05:06.713Z,17.50
2018-05-05T08:07:37.921Z,18.30
2018-05-05T08:10:07.928Z,18.30
2018-05-05T08:12:38.441Z,21.30
2018-05-05T08:15:09.719Z,24.20
2018-05-05T08:17:45.140Z,27.50
2018-05-05T08:20:21.887Z,27.40
2018-05-05T08:22:52.760Z,28.60
2018-05-05T08:25:23.667Z,29.00
2018-05-05T08:27:53.181Z,29.60
2018-05-05T08:30:30.783Z,30.50
2018-05-05T08:33:02.145Z,29.70
2018-05-05T08:35:32.197Z,30.50
2018-05-05T08:38:03.801Z,30.80
2018-05-05T08:40:34.915Z,31.20
2018-05-05T08:43:10.889Z,31.20
2018-05-05T08:45:40.500Z,31.90
2018-05-05T08:48:10.615Z,32.20
2018-05-05T08:50:39.613Z,32.20
2018-05-05T08:53:09.457Z,32.10
2018-05-05T08:55:38.871Z,31.10
2018-05-05T08:58:08.175Z,31.20
2018-05-05T09:00:37.818Z,30.20
2018-05-05T09:03:08.557Z,30.00
2018-05-05T09:05:38.384Z,30.00
2018-05-05T09:08:09.042Z,29.70
2018-05-05T09:10:38.250Z,27.20
2018-05-05T09:13:08.206Z,25.60
2018-05-05T09:15:38.494Z,27.30
2018-05-05T09:18:07.935Z,27.30
2018-05-05T09:20:37.486Z,26.50
2018-05-05T09:23:09.494Z,26.50
2018-05-05T09:25:41.033Z,26.70
2018-05-05T09:28:12.091Z,26.10
2018-05-05T09:30:44.440Z,27.20
2018-05-05T09:33:15.547Z,27.20
2018-05-05T09:35:45.595Z,27.40
2018-05-05T09:38:14.407Z,27.40
2018-05-05T09:40:43.662Z,26.50
2018-05-05T09:43:13.978Z,26.00
2018-05-05T09:45:43.056Z,27.20
2018-05-05T09:48:13.713Z,28.00
2018-05-05T09:50:45.272Z,28.00
2018-05-05T09:53:18.825Z,27.50
2018-05-05T09:55:51.795Z,26.00
2018-05-05T09:58:24.636Z,26.00
2018-05-05T10:00:55.570Z,25.90
2018-05-05T10:03:25.555Z,25.30
2018-05-05T10:05:55.196Z,25.10
2018-05-05T10:08:24.604Z,25.10
2018-05-05T10:10:52.233Z,25.80
2018-05-05T10:13:19.100Z,25.80
2018-05-05T10:15:46.843Z,25.30
2018-05-05T10:18:13.888Z,25.30
2018-05-05T10:20:40.757Z,25.00
2018-05-05T10:23:08.442Z,25.00
2018-05-05T10:25:35.325Z,25.00
2018-05-05T10:28:02.270Z,25.00
2018-05-05T10:30:29.190Z,25.30
2018-05-05T10:32:56.134Z,24.90
2018-05-05T10:35:22.992Z,25.10
2018-05-05T10:37:49.947Z,25.50
2018-05-05T10:40:17.088Z,24.30
2018-05-05T10:42:44.096Z,25.10
2018-05-05T10:45:11.817Z,25.20
2018-05-05T10:47:38.757Z,25.20
2018-05-05T10:50:05.722Z,25.60
2018-05-05T10:52:32.620Z,25.60
2018-05-05T10:54:59.533Z,25.80
2018-05-05T10:57:26.424Z,25.30
2018-05-05T10:59:53.400Z,25.40
2018-05-05T11:02:20.325Z,25.00
2018-05-05T11:04:47.264Z,25.20
2018-05-05T11:07:14.151Z,25.80
2018-05-05T11:09:41.093Z,25.50
2018-05-05T11:12:08.021Z,25.90
2018-05-05T11:14:34.920Z,25.50
2018-05-05T11:17:02.598Z,25.60
2018-05-05T11:19:29.449Z,25.50
2018-05-05T11:21:56.377Z,25.50
2018-05-05T11:24:23.274Z,25.60
2018-05-05T11:26:50.219Z,25.50
2018-05-05T11:29:17.082Z,26.00
2018-05-05T11:31:44.011Z,25.70
2018-05-05T11:34:10.885Z,26.10
2018-05-05T11:36:38.590Z,26.00
2018-05-05T11:39:05.566Z,25.90
2018-05-05T11:41:32.482Z,26.40
2018-05-05T11:43:59.350Z,25.50
2018-05-05T11:46:26.264Z,25.30
2018-05-05T11:48:53.165Z,26.00
2018-05-05T11:51:20.025Z,26.10
2018-05-05T11:53:46.929Z,26.30
2018-05-05T11:56:13.887Z,26.20
2018-05-05T11:58:40.846Z,26.10
2018-05-05T12:01:07.765Z,25.30
2018-05-05T12:03:34.741Z,24.90
2018-05-05T12:06:01.691Z,25.00
2018-05-05T12:08:28.574Z,25.40
2018-05-05T12:10:55.529Z,25.70
2018-05-05T12:13:22.441Z,26.00
2018-05-05T12:15:50.098Z,26.00
2018-05-05T12:18:17.010Z,26.00
2018-05-05T12:20:44.061Z,25.40
2018-05-05T12:23:10.909Z,25.50
2018-05-05T12:25:37.861Z,24.90
2018-05-05T12:28:04.764Z,25.50
2018-05-05T12:30:31.702Z,25.60
2018-05-05T12:32:58.557Z,25.50
2018-05-05T12:35:25.411Z,25.90
2018-05-05T12:37:53.113Z,25.50
2018-05-05T12:40:20.736Z,24.80
2018-05-05T12:42:47.670Z,24.80
2018-05-05T12:45:14.677Z,25.50
2018-05-05T12:47:42.311Z,25.40
2018-05-05T12:50:09.240Z,25.30
2018-05-05T12:52:36.124Z,25.50
2018-05-05T12:55:03.927Z,25.00
2018-05-05T12:57:30.786Z,25.00
2018-05-05T12:59:57.677Z,25.10
2018-05-05T13:02:27.522Z,25.50
2018-05-05T13:04:54.467Z,25.30
2018-05-05T13:07:21.482Z,25.90
2018-05-05T13:10:03.284Z,25.80
2018-05-05T13:12:30.971Z,25.80
2018-05-05T13:15:01.865Z,25.80
2018-05-05T13:17:28.954Z,25.80
2018-05-05T13:19:56.638Z,25.60
2018-05-05T13:22:23.870Z,25.50
2018-05-05T13:24:54.103Z,25.80
2018-05-05T13:27:21.384Z,25.80
2018-05-05T13:29:48.249Z,25.90
2018-05-05T13:32:16.692Z,26.00
2018-05-05T13:34:43.546Z,26.20
2018-05-05T13:37:10.455Z,25.90
2018-05-05T13:39:38.122Z,26.10
2018-05-05T13:42:05.106Z,26.10
2018-05-05T13:44:31.966Z,26.10
2018-05-05T13:47:05.806Z,26.10
2018-05-05T13:49:32.725Z,25.80
2018-05-05T13:51:59.729Z,25.90
2018-05-05T13:54:26.655Z,25.70
2018-05-05T13:56:53.506Z,25.80
2018-05-05T13:59:21.165Z,25.90
2018-05-05T14:01:49.044Z,25.60
2018-05-05T14:04:15.989Z,25.60
2018-05-05T14:06:43.006Z,26.00
2018-05-05T14:09:10.778Z,26.10
2018-05-05T14:11:37.821Z,26.20
2018-05-05T14:14:11.891Z,25.60
2018-05-05T14:16:43.443Z,25.70
2018-05-05T14:19:14.825Z,26.10
2018-05-05T14:21:41.741Z,26.30
2018-05-05T14:24:08.607Z,26.30
2018-05-05T14:26:38.054Z,25.80
2018-05-05T14:29:05.646Z,26.10
2018-05-05T14:31:35.466Z,26.00
2018-05-05T14:34:06.468Z,26.20
2018-05-05T14:36:37.568Z,26.10
2018-05-05T14:39:05.025Z,25.90
2018-05-05T14:41:31.927Z,26.10
2018-05-05T14:43:58.949Z,25.80
2018-05-05T14:46:26.482Z,25.80
2018-05-05T14:48:53.435Z,25.60
2018-05-05T14:51:23.986Z,25.60
2018-05-05T14:53:50.874Z,25.90
2018-05-05T14:56:18.060Z,25.80
2018-05-05T14:58:44.976Z,25.90
2018-05-05T15:01:11.841Z,25.50
2018-05-05T15:03:43.443Z,25.50
2018-05-05T15:06:11.289Z,25.50
2018-05-05T15:08:38.194Z,25.50
2018-05-05T15:11:06.019Z,25.40
2018-05-05T15:13:33.702Z,25.20
2018-05-05T15:16:00.570Z,25.20
2018-05-05T15:18:27.480Z,25.10
2018-05-05T15:20:55.150Z,25.10
2018-05-05T15:23:22.760Z,25.20
2018-05-05T15:25:49.752Z,25.20
2018-05-05T15:28:16.749Z,24.80
2018-05-05T15:30:43.753Z,25.10
2018-05-05T15:33:11.973Z,25.20
2018-05-05T15:35:45.848Z,25.20
2018-05-05T15:38:14.157Z,25.00
2018-05-05T15:40:48.732Z,24.90
2018-05-05T15:43:16.984Z,25.00
2018-05-05T15:45:43.849Z,25.00
2018-05-05T15:48:14.663Z,25.10
2018-05-05T15:50:45.874Z,25.30
2018-05-05T15:53:15.557Z,25.40
2018-05-05T15:55:42.497Z,25.30
2018-05-05T15:58:19.550Z,25.20
2018-05-05T16:00:46.901Z,25.20
2018-05-05T16:03:18.903Z,25.20
2018-05-05T16:05:46.509Z,25.00
2018-05-05T16:08:13.496Z,24.90
2018-05-05T16:10:41.179Z,24.80
2018-05-05T16:13:08.817Z,25.00
2018-05-05T16:15:35.728Z,25.00
2018-05-05T16:18:03.957Z,25.00
2018-05-05T16:20:31.933Z,25.00
2018-05-05T16:22:59.634Z,24.90
2018-05-05T16:25:26.549Z,24.90
2018-05-05T16:27:53.397Z,24.80
2018-05-05T16:30:20.335Z,24.80
2018-05-05T16:32:47.177Z,24.80
2018-05-05T16:35:24.992Z,24.90
2018-05-05T16:37:52.166Z,24.60
2018-05-05T16:40:20.400Z,24.60
2018-05-05T16:42:55.286Z,24.40
2018-05-05T16:45:22.793Z,24.40
2018-05-05T16:47:49.788Z,24.30
2018-05-05T16:50:17.072Z,24.20
2018-05-05T16:52:49.360Z,24.20
2018-05-05T16:55:16.800Z,24.00
2018-05-05T16:57:44.325Z,24.20
2018-05-05T17:00:11.337Z,24.10
2018-05-05T17:02:39.009Z,23.90
2018-05-05T17:05:05.937Z,23.90
2018-05-05T17:07:32.787Z,24.00
2018-05-05T17:09:59.778Z,24.00
2018-05-05T17:12:26.605Z,24.00
2018-05-05T17:14:53.513Z,23.90
2018-05-05T17:17:21.109Z,23.90
2018-05-05T17:19:48.005Z,23.90
2018-05-05T17:22:25.539Z,23.90
2018-05-05T17:25:05.841Z,23.70
2018-05-05T17:27:33.589Z,23.70
2018-05-05T17:30:00.516Z,23.50
2018-05-05T17:32:27.364Z,23.50
2018-05-05T17:34:54.204Z,23.40
2018-05-05T17:37:21.117Z,23.40
2018-05-05T17:39:48.081Z,23.00
2018-05-05T17:42:14.984Z,23.00
2018-05-05T17:44:41.944Z,23.10
2018-05-05T17:47:08.925Z,23.10
2018-05-05T17:49:35.782Z,23.00
2018-05-05T17:52:02.720Z,23.10
2018-05-05T17:54:29.564Z,23.00
2018-05-05T17:56:56.497Z,23.00
2018-05-05T17:59:23.358Z,22.90
2018-05-05T18:01:50.221Z,22.80
2018-05-05T18:04:17.224Z,22.70
2018-05-05T18:06:44.154Z,22.70
2018-05-05T18:09:11.062Z,22.50
2018-05-05T18:11:37.909Z,22.20
2018-05-05T18:14:04.832Z,22.30
2018-05-05T18:16:31.677Z,22.30
2018-05-05T18:18:59.052Z,22.00
2018-05-05T18:21:25.894Z,21.90
2018-05-05T18:23:52.821Z,21.90
2018-05-05T18:26:19.769Z,21.80
2018-05-05T18:28:46.639Z,21.50
2018-05-05T18:31:13.562Z,21.50
2018-05-05T18:33:40.500Z,21.40
2018-05-05T18:36:07.414Z,21.20
2018-05-05T18:38:34.288Z,21.20
2018-05-05T18:41:01.238Z,21.00
2018-05-05T18:43:28.113Z,20.90
2018-05-05T18:45:55.041Z,20.90
2018-05-05T18:48:22.025Z,20.80
2018-05-05T18:50:48.933Z,20.50
2018-05-05T18:53:15.809Z,20.60
2018-05-05T18:55:42.969Z,20.50
2018-05-05T18:58:09.832Z,20.40
2018-05-05T19:00:37.499Z,20.40
2018-05-05T19:03:05.235Z,20.30
2018-05-05T19:05:32.138Z,20.30
2018-05-05T19:07:59.065Z,20.30
2018-05-05T19:10:25.932Z,20.30
2018-05-05T19:12:52.840Z,20.20
2018-05-05T19:15:19.704Z,20.10
2018-05-05T19:17:46.667Z,20.20
2018-05-05T19:20:13.627Z,20.10
2018-05-05T19:22:40.553Z,20.00
2018-05-05T19:25:07.414Z,20.10
2018-05-05T19:27:34.359Z,20.10
2018-05-05T19:30:01.213Z,20.00
2018-05-05T19:32:28.079Z,19.90
2018-05-05T19:34:55.012Z,19.80
2018-05-05T19:37:21.865Z,19.70
2018-05-05T19:39:48.722Z,19.70
2018-05-05T19:42:15.656Z,19.40
2018-05-05T19:44:43.100Z,19.40
2018-05-05T19:47:12.123Z,19.30
2018-05-05T19:49:39.925Z,19.30
2018-05-05T19:52:06.895Z,19.20
2018-05-05T19:54:33.931Z,19.20
2018-05-05T19:57:00.782Z,19.20
2018-05-05T19:59:27.789Z,19.20
2018-05-05T20:01:55.759Z,19.00
2018-05-05T20:04:22.897Z,19.10
2018-05-05T20:06:50.480Z,19.10
2018-05-05T20:09:18.121Z,18.90
2018-05-05T20:11:47.758Z,18.80
2018-05-05T20:14:16.037Z,18.80
2018-05-05T20:16:42.974Z,18.80
2018-05-05T20:19:10.580Z,18.80
2018-05-05T20:21:37.458Z,18.70
2018-05-05T20:24:04.481Z,18.60
2018-05-05T20:26:31.359Z,18.60
2018-05-05T20:29:00.567Z,18.50
2018-05-05T20:31:30.017Z,18.50
2018-05-05T20:34:02.036Z,18.40
2018-05-05T20:36:32.311Z,18.40
2018-05-05T20:38:59.318Z,18.40
2018-05-05T20:41:26.969Z,18.30
2018-05-05T20:43:54.561Z,18.40
2018-05-05T20:46:21.536Z,18.30
2018-05-05T20:48:49.178Z,18.20
2018-05-05T20:51:16.172Z,18.30
2018-05-05T20:53:43.080Z,18.00
2018-05-05T20:56:09.991Z,18.10
2018-05-05T20:58:36.837Z,18.20
2018-05-05T21:01:03.764Z,18.00
2018-05-05T21:03:31.517Z,18.00
2018-05-05T21:05:58.434Z,17.90
2018-05-05T21:08:25.450Z,17.90
2018-05-05T21:10:52.441Z,17.90
2018-05-05T21:13:19.373Z,17.80
2018-05-05T21:15:46.320Z,17.70
2018-05-05T21:18:13.280Z,17.60
2018-05-05T21:20:40.196Z,17.60
2018-05-05T21:23:07.218Z,17.40
2018-05-05T21:25:34.074Z,17.50
2018-05-05T21:28:00.995Z,17.50
2018-05-05T21:30:27.937Z,17.60
2018-05-05T21:32:54.868Z,17.30
2018-05-05T21:35:21.699Z,17.30
2018-05-05T21:37:48.663Z,17.30
2018-05-05T21:40:15.533Z,17.30
2018-05-05T21:42:42.446Z,17.30
2018-05-05T21:45:09.293Z,17.40
2018-05-05T21:47:36.206Z,17.30
2018-05-05T21:50:03.152Z,17.30
2018-05-05T21:52:30.079Z,17.40
2018-05-05T21:54:57.006Z,17.40
2018-05-05T21:57:23.929Z,17.30
2018-05-05T21:59:50.859Z,17.30
2018-05-05T22:02:17.701Z,17.30
2018-05-05T22:04:44.690Z,17.30
2018-05-05T22:07:11.680Z,17.10
2018-05-05T22:09:38.527Z,17.20
2018-05-05T22:12:05.486Z,17.20
2018-05-05T22:14:32.417Z,17.10
2018-05-05T22:16:59.281Z,17.00
2018-05-05T22:19:26.192Z,16.80
2018-05-05T22:21:53.126Z,16.60
2018-05-05T22:24:19.974Z,16.40
2018-05-05T22:26:46.897Z,16.50
2018-05-05T22:29:14.626Z,16.50
2018-05-05T22:31:41.593Z,16.50
2018-05-05T22:34:08.530Z,16.60
2018-05-05T22:36:35.507Z,16.70
2018-05-05T22:39:02.406Z,16.70
2018-05-05T22:41:29.323Z,16.70
2018-05-05T22:43:56.250Z,16.70
2018-05-05T22:46:23.328Z,16.70
2018-05-05T22:48:50.177Z,16.70
2018-05-05T22:51:17.039Z,16.60
2018-05-05T22:53:43.960Z,16.50
2018-05-05T22:56:10.816Z,16.30
2018-05-05T22:58:37.732Z,16.30
2018-05-05T23:01:04.605Z,16.20
2018-05-05T23:03:31.607Z,16.30
2018-05-05T23:05:58.489Z,16.30
2018-05-05T23:08:25.401Z,16.30
2018-05-05T23:10:52.410Z,16.30
2018-05-05T23:13:19.338Z,16.30
2018-05-05T23:15:46.196Z,16.30
2018-05-05T23:18:13.130Z,16.20
2018-05-05T23:20:40.017Z,16.10
2018-05-05T23:23:07.613Z,16.00
2018-05-05T23:25:34.537Z,16.00
2018-05-05T23:28:01.494Z,16.00
2018-05-05T23:30:28.405Z,15.90
2018-05-05T23:32:55.337Z,15.80
2018-05-05T23:35:22.198Z,15.40
2018-05-05T23:37:49.049Z,15.30
2018-05-05T23:40:16.704Z,15.00
2018-05-05T23:42:43.564Z,14.90
2018-05-05T23:45:10.424Z,14.90
2018-05-05T23:47:37.332Z,14.80
2018-05-05T23:50:04.205Z,14.70
2018-05-05T23:52:31.121Z,14.70
2018-05-05T23:54:58.068Z,14.70
2018-05-05T23:57:24.928Z,14.50
2018-05-05T23:59:51.801Z,14.80
